Time;durP1;ratioP1;P1;durP2;ratioP2;P2;SDS_P1;SDS_P2;PMS_P1;PMS_P2;Temp;Humidity;BMP_temperature;BMP_pressure;BME280_temperature;BME280_humidity;BME280_pressure;Samples;Min_cycle;Max_cycle;Signal;HPM_P1;HPM_P2
2021/10/11 00:00:14;;;;;;;31.50;12.35;;;;;;;6.93;57.55;101177.66;1746983;82;21394;-75
2021/10/11 00:03:20;;;;;;;27.52;13.05;;;;;;;6.88;57.98;101179.41;1748229;82;21303;-75
2021/10/11 00:06:26;;;;;;;23.85;12.25;;;;;;;6.84;58.22;101177.09;1747392;82;21326;-75
2021/10/11 00:09:31;;;;;;;26.20;11.83;;;;;;;6.78;58.56;101172.18;1748229;82;21898;-75
2021/10/11 00:12:36;;;;;;;32.03;12.95;;;;;;;6.72;58.61;101174.91;1748053;82;21937;-75
2021/10/11 00:15:43;;;;;;;24.37;13.30;;;;;;;6.67;58.74;101171.71;1747867;82;21747;-75
2021/10/11 00:18:49;;;;;;;25.30;12.43;;;;;;;6.64;58.96;101174.71;1747047;80;21212;-75
2021/10/11 00:21:55;;;;;;;30.57;12.37;;;;;;;6.60;59.06;101168.66;1748432;82;21299;-75
2021/10/11 00:25:01;;;;;;;27.20;12.73;;;;;;;6.57;59.17;101159.90;1748139;82;21180;-75
2021/10/11 00:28:06;;;;;;;35.28;14.23;;;;;;;6.54;59.21;101162.39;1748013;82;21338;-75
2021/10/11 00:31:11;;;;;;;28.10;13.68;;;;;;;6.53;59.42;101170.66;1748419;82;21588;-75
2021/10/11 00:34:17;;;;;;;30.95;14.80;;;;;;;6.51;59.64;101164.50;1747086;80;21893;-75
2021/10/11 00:37:23;;;;;;;21.65;13.00;;;;;;;6.48;60.05;101159.31;1739421;82;21775;-75
2021/10/11 00:40:27;;;;;;;24.92;12.90;;;;;;;6.46;60.17;101154.52;1740582;82;21312;-75
2021/10/11 00:43:32;;;;;;;25.85;12.98;;;;;;;6.44;60.47;101149.19;1740060;82;21360;-75
2021/10/11 00:46:37;;;;;;;26.33;13.90;;;;;;;6.47;60.69;101152.16;1740069;82;21926;-74
2021/10/11 00:49:43;;;;;;;24.18;13.48;;;;;;;6.48;60.69;101145.23;1740775;82;21200;-75
2021/10/11 00:52:48;;;;;;;30.08;13.75;;;;;;;6.49;60.76;101143.37;1740583;82;21826;-75
2021/10/11 00:55:54;;;;;;;31.37;14.47;;;;;;;6.48;60.70;101140.29;1740506;82;21310;-75
2021/10/11 00:59:01;;;;;;;35.92;15.68;;;;;;;6.46;60.50;101136.35;1740000;82;21216;-75
2021/10/11 01:02:06;;;;;;;25.80;13.93;;;;;;;6.46;60.42;101138.21;1739310;82;21866;-75
2021/10/11 01:05:13;;;;;;;29.63;13.53;;;;;;;6.44;60.32;101134.24;1740666;82;21303;-75
2021/10/11 01:08:18;;;;;;;32.35;15.28;;;;;;;6.44;60.33;101129.30;1739369;82;21303;-75
2021/10/11 01:11:24;;;;;;;40.05;14.68;;;;;;;6.40;60.38;101124.66;1740679;82;21307;-75
2021/10/11 01:14:29;;;;;;;29.95;15.63;;;;;;;6.37;60.61;101127.12;1739610;82;21882;-75
2021/10/11 01:17:34;;;;;;;30.77;14.68;;;;;;;6.33;60.82;101124.28;1739687;82;21177;-75
2021/10/11 01:20:40;;;;;;;29.05;13.35;;;;;;;6.29;61.01;101132.33;1740678;82;21241;-75
2021/10/11 01:23:46;;;;;;;31.00;13.38;;;;;;;6.22;61.37;101120.27;1739233;82;21747;-75
2021/10/11 01:26:51;;;;;;;36.53;15.32;;;;;;;6.18;61.67;101126.94;1740263;82;21209;-75
2021/10/11 01:29:56;;;;;;;25.95;13.75;;;;;;;6.13;61.84;101121.03;1739738;82;21903;-75
2021/10/11 01:33:01;;;;;;;29.75;13.75;;;;;;;6.08;62.03;101115.98;1740663;82;21331;-75
2021/10/11 01:36:07;;;;;;;27.55;13.30;;;;;;;6.04;62.20;101114.51;1746628;79;21743;-77
2021/10/11 01:39:14;;;;;;;25.37;13.13;;;;;;;6.04;62.28;101116.36;1748211;82;21322;-75
2021/10/11 01:42:19;;;;;;;23.77;13.55;;;;;;;6.04;62.32;101119.94;1748394;82;21380;-75
2021/10/11 01:45:24;;;;;;;27.27;14.53;;;;;;;6.03;62.44;101122.30;1747100;82;21751;-75
2021/10/11 01:48:30;;;;;;;29.12;14.03;;;;;;;6.04;62.47;101119.94;1746865;82;21259;-75
2021/10/11 01:51:35;;;;;;;37.40;14.58;;;;;;;6.02;62.46;101120.58;1746944;82;21188;-75
2021/10/11 01:54:41;;;;;;;30.37;14.15;;;;;;;6.02;62.41;101117.86;1748445;82;21799;-75
2021/10/11 01:57:47;;;;;;;28.35;13.80;;;;;;;6.02;62.47;101116.50;1747672;82;21198;-75
2021/10/11 02:00:52;;;;;;;26.15;13.38;;;;;;;6.03;62.46;101107.86;1747514;82;21314;-75
2021/10/11 02:03:58;;;;;;;27.85;13.85;;;;;;;6.01;62.40;101105.75;1748064;82;21184;-75
2021/10/11 02:07:05;;;;;;;29.35;14.18;;;;;;;6.01;62.35;101105.25;1748185;82;21224;-75
2021/10/11 02:10:13;;;;;;;26.17;13.78;;;;;;;6.01;62.30;101100.31;1748289;82;21177;-75
2021/10/11 02:13:19;;;;;;;30.80;13.53;;;;;;;6.00;62.26;101101.31;1748488;82;21834;-75
2021/10/11 02:16:23;;;;;;;26.35;13.75;;;;;;;5.98;62.33;101099.23;1748626;82;21382;-75
2021/10/11 02:19:29;;;;;;;29.00;12.90;;;;;;;5.95;62.38;101103.55;1748419;82;21189;-75
2021/10/11 02:22:35;;;;;;;27.40;13.48;;;;;;;5.90;62.43;101100.68;1748410;82;21834;-75
2021/10/11 02:25:42;;;;;;;27.75;13.85;;;;;;;5.87;62.59;101096.85;1747038;82;21184;-75
2021/10/11 02:28:47;;;;;;;28.45;12.53;;;;;;;5.85;62.60;101093.41;1747049;82;21858;-75
2021/10/11 02:31:52;;;;;;;24.82;12.88;;;;;;;5.82;62.70;101090.08;1748545;82;21311;-75
2021/10/11 02:34:58;;;;;;;32.70;14.38;;;;;;;5.79;62.78;101091.22;1748368;82;21343;-75
2021/10/11 02:37:59;;;;;;;28.17;13.55;;;;;;;5.76;62.93;101087.39;1748367;80;21316;-75
2021/10/11 02:41:05;;;;;;;29.07;12.82;;;;;;;5.72;63.02;101088.63;1748413;82;21819;-75
2021/10/11 02:44:10;;;;;;;25.15;12.93;;;;;;;5.69;63.07;101082.08;1748495;82;21295;-75
2021/10/11 02:47:15;;;;;;;25.05;12.07;;;;;;;5.66;63.18;101075.56;1747008;82;21366;-75
2021/10/11 02:50:21;;;;;;;20.75;12.35;;;;;;;5.65;63.37;101071.13;1748448;82;21299;-74
2021/10/11 02:53:28;;;;;;;30.55;12.75;;;;;;;5.64;63.65;101072.09;1748330;82;21851;-75
2021/10/11 02:56:32;;;;;;;33.63;13.62;;;;;;;5.67;63.76;101073.21;1746990;82;21216;-75
2021/10/11 02:59:38;;;;;;;23.70;13.05;;;;;;;5.68;63.98;101072.71;1748371;82;21307;-75
2021/10/11 03:02:43;;;;;;;24.15;13.38;;;;;;;5.71;64.27;101073.33;1741786;82;21500;-75
2021/10/11 03:05:50;;;;;;;31.48;13.95;;;;;;;5.74;64.42;101071.73;1719883;82;21203;-75
2021/10/11 03:08:56;;;;;;;21.12;12.93;;;;;;;5.77;64.46;101060.59;1717780;83;21863;-75
2021/10/11 03:12:03;;;;;;;32.65;12.82;;;;;;;5.81;64.66;101059.36;1718621;83;21243;-75
2021/10/11 03:15:10;;;;;;;25.70;14.95;;;;;;;5.83;64.74;101060.11;1718626;83;21835;-75
2021/10/11 03:18:16;;;;;;;41.28;13.60;;;;;;;5.83;64.82;101058.75;1717413;83;21919;-75
2021/10/11 03:21:22;;;;;;;34.85;14.93;;;;;;;5.86;64.84;101057.13;1728562;82;21174;-75
2021/10/11 03:24:28;;;;;;;35.40;14.03;;;;;;;5.89;64.88;101048.73;1727569;83;21186;-75
2021/10/11 03:27:34;;;;;;;34.05;14.25;;;;;;;5.94;64.74;101046.16;1710243;83;21315;-75
2021/10/11 03:30:40;;;;;;;25.60;15.03;;;;;;;5.99;64.48;101044.78;1741257;82;21386;-75
2021/10/11 03:33:46;;;;;;;30.92;14.70;;;;;;;6.07;64.21;101046.36;1690320;84;21843;-75
2021/10/11 03:36:51;;;;;;;29.63;15.53;;;;;;;6.12;64.04;101038.69;1690106;85;22770;-75
2021/10/11 03:39:57;;;;;;;31.60;15.40;;;;;;;6.15;63.94;101034.83;1705634;83;21863;-75
2021/10/11 03:43:02;;;;;;;25.82;15.00;;;;;;;6.18;63.85;101027.78;1685161;85;21752;-75
2021/10/11 03:46:08;;;;;;;29.87;15.55;;;;;;;6.21;63.76;101028.89;1688235;83;21280;-75
2021/10/11 03:49:14;;;;;;;32.50;14.83;;;;;;;6.22;63.58;101026.54;1672743;86;21428;-75
2021/10/11 03:52:19;;;;;;;26.45;14.45;;;;;;;6.24;63.53;101026.39;1685403;85;21641;-75
2021/10/11 03:55:26;;;;;;;32.50;15.08;;;;;;;6.26;63.53;101025.29;1685536;85;21766;-75
2021/10/11 03:58:32;;;;;;;27.25;15.10;;;;;;;6.27;63.54;101016.14;1673230;86;21904;-75
2021/10/11 04:01:38;;;;;;;23.60;13.90;;;;;;;6.29;63.61;101015.50;1702615;83;21228;-75
2021/10/11 04:04:43;;;;;;;23.47;12.88;;;;;;;6.34;63.67;101020.03;1711170;83;21871;-75
2021/10/11 04:07:52;;;;;;;31.10;13.65;;;;;;;6.40;63.74;101018.67;1702980;84;21158;-75
2021/10/11 04:11:04;;;;;;;28.95;14.07;;;;;;;6.46;63.68;101013.20;1701754;84;21344;-75
2021/10/11 04:14:03;;;;;;;31.17;14.28;;;;;;;6.53;63.57;101014.38;1707740;83;21355;-75
2021/10/11 04:17:12;;;;;;;27.85;14.63;;;;;;;6.61;63.34;101009.14;1684752;85;21671;-74
2021/10/11 04:20:20;;;;;;;33.28;15.75;;;;;;;6.68;63.27;101017.14;1701441;84;21357;-74
2021/10/11 04:23:27;;;;;;;33.55;14.15;;;;;;;6.73;63.14;101008.08;1702733;84;21329;-74
2021/10/11 04:26:31;;;;;;;24.87;14.95;;;;;;;6.76;63.19;101005.57;1702442;84;21249;-75
2021/10/11 04:29:38;;;;;;;41.68;15.13;;;;;;;6.78;63.17;101001.73;1707587;82;21351;-75
2021/10/11 04:32:44;;;;;;;34.83;13.68;;;;;;;6.81;63.07;101001.95;1696218;84;21381;-74
2021/10/11 04:35:53;;;;;;;32.78;13.60;;;;;;;6.85;62.82;100994.74;1726377;82;21318;-74
2021/10/11 04:38:58;;;;;;;26.82;14.30;;;;;;;6.90;62.66;100992.47;1738179;82;21338;-74
2021/10/11 04:42:03;;;;;;;29.75;13.20;;;;;;;6.93;62.38;100995.44;1741249;82;21213;-74
2021/10/11 04:45:10;;;;;;;25.75;13.08;;;;;;;6.97;61.96;100987.37;1742072;82;21383;-75
2021/10/11 04:48:16;;;;;;;25.65;13.32;;;;;;;7.06;61.13;100989.77;1745165;81;21280;-75
2021/10/11 04:51:20;;;;;;;24.77;13.62;;;;;;;7.15;60.86;100990.28;1749230;81;21428;-75
2021/10/11 04:54:27;;;;;;;26.07;12.63;;;;;;;7.23;60.33;100993.17;1747896;81;21332;-75
2021/10/11 04:57:32;;;;;;;29.20;13.98;;;;;;;7.32;59.87;100995.07;1750303;81;21190;-75
2021/10/11 05:00:38;;;;;;;27.58;12.88;;;;;;;7.39;59.46;100993.53;1753326;81;21178;-75
2021/10/11 05:03:44;;;;;;;25.95;12.33;;;;;;;7.47;59.26;100993.31;1755309;81;21328;-75
2021/10/11 05:06:50;;;;;;;26.17;13.28;;;;;;;7.51;59.07;100986.59;1752820;81;21320;-75
2021/10/11 05:09:59;;;;;;;25.60;12.68;;;;;;;7.55;58.87;100988.05;1754333;81;21312;-77
2021/10/11 05:13:09;;;;;;;26.55;13.90;;;;;;;7.60;58.72;100983.03;1750649;81;21209;-76
2021/10/11 05:16:14;;;;;;;29.52;12.65;;;;;;;7.66;58.39;100987.91;1750576;81;21324;-76
2021/10/11 05:19:29;;;;;;;25.90;11.75;;;;;;;7.72;58.29;100986.51;1753933;79;21356;-76
2021/10/11 05:22:26;;;;;;;25.37;12.00;;;;;;;7.77;58.11;100993.25;1714613;81;21898;-77
2021/10/11 05:25:34;;;;;;;36.95;13.93;;;;;;;7.83;57.79;100996.75;1714988;81;22494;-75
2021/10/11 05:28:41;;;;;;;38.83;13.08;;;;;;;7.88;57.44;100993.09;1721862;82;21299;-75
2021/10/11 05:31:48;;;;;;;28.00;12.00;;;;;;;7.94;57.45;100985.70;1752792;79;21229;-75
2021/10/11 05:34:56;;;;;;;26.70;12.45;;;;;;;8.00;57.10;100982.94;1751435;79;21291;-75
2021/10/11 05:38:08;;;;;;;23.20;12.15;;;;;;;8.05;56.96;100987.96;1689295;82;21247;-76
2021/10/11 05:41:17;;;;;;;27.52;12.78;;;;;;;8.11;56.69;100992.83;1711450;80;21342;-76
2021/10/11 05:44:24;;;;;;;20.50;11.70;;;;;;;8.16;56.42;100987.80;1686088;82;21267;-76
2021/10/11 05:47:30;;;;;;;22.65;12.70;;;;;;;8.20;56.50;100981.92;1711505;81;21212;-74
2021/10/11 05:50:36;;;;;;;23.92;12.63;;;;;;;8.28;56.34;100985.30;1738400;80;21183;-75
2021/10/11 05:53:42;;;;;;;24.67;12.85;;;;;;;8.35;56.05;100973.30;1740064;81;21266;-75
2021/10/11 05:56:48;;;;;;;25.23;12.33;;;;;;;8.42;55.84;100980.78;1735720;80;21274;-75
2021/10/11 05:59:53;;;;;;;32.48;13.15;;;;;;;8.48;55.84;100984.78;1741204;80;22271;-76
2021/10/11 06:02:59;;;;;;;31.82;12.82;;;;;;;8.57;55.48;100978.96;1740415;80;21135;-77
2021/10/11 06:06:06;;;;;;;32.00;12.68;;;;;;;8.65;55.25;100983.15;1739011;81;21283;-75
2021/10/11 06:09:13;;;;;;;28.07;13.38;;;;;;;8.71;54.66;100979.86;1724412;81;21186;-76
2021/10/11 06:12:25;;;;;;;22.13;11.00;;;;;;;8.75;54.65;100988.11;1721816;81;21186;-76
2021/10/11 06:15:30;;;;;;;22.67;12.03;;;;;;;8.81;54.40;100979.83;1740716;81;21859;-77
2021/10/11 06:18:36;;;;;;;25.12;13.03;;;;;;;8.87;54.31;100987.41;1735387;80;21222;-76
2021/10/11 06:21:41;;;;;;;26.07;13.05;;;;;;;8.91;54.16;100991.05;1736270;81;21359;-76
2021/10/11 06:24:47;;;;;;;26.52;11.70;;;;;;;8.96;54.29;100982.42;1738368;80;21599;-79
2021/10/11 06:27:54;;;;;;;20.97;11.95;;;;;;;9.02;54.00;100990.00;1688033;82;21200;-77
2021/10/11 06:31:01;;;;;;;35.03;12.55;;;;;;;9.06;54.18;100985.96;1680832;83;21253;-77
2021/10/11 06:34:07;;;;;;;23.83;12.58;;;;;;;9.12;53.92;100981.77;1747328;80;21315;-76
2021/10/11 06:37:16;;;;;;;23.70;12.37;;;;;;;9.15;53.98;100980.97;1743681;80;21225;-75
2021/10/11 06:40:25;;;;;;;22.02;11.80;;;;;;;9.20;53.94;100975.91;1728630;81;21316;-76
2021/10/11 06:43:30;;;;;;;22.82;12.25;;;;;;;9.26;53.77;100968.98;1727391;80;21286;-75
2021/10/11 06:46:38;;;;;;;24.57;12.43;;;;;;;9.34;53.57;100977.79;1725945;80;21207;-76
2021/10/11 06:49:50;;;;;;;26.25;12.47;;;;;;;9.41;53.59;100965.23;1686246;82;21698;-77
2021/10/11 06:52:55;;;;;;;21.85;11.60;;;;;;;9.50;53.28;100963.45;1694855;83;21290;-77
2021/10/11 06:56:02;;;;;;;29.18;12.40;;;;;;;9.58;53.33;100960.31;1699458;82;21192;-77
2021/10/11 06:59:06;;;;;;;31.33;11.90;;;;;;;9.64;52.93;100954.73;1710624;81;21331;-77
2021/10/11 07:02:12;;;;;;;22.67;12.20;;;;;;;9.71;52.99;100957.22;1700012;82;22228;-76
2021/10/11 07:05:22;;;;;;;33.42;12.13;;;;;;;9.75;52.73;100962.72;1719425;80;21617;-76
2021/10/11 07:08:27;;;;;;;22.17;11.90;;;;;;;9.83;52.62;100955.95;1724500;82;22499;-77
2021/10/11 07:11:32;;;;;;;23.55;12.28;;;;;;;9.90;52.52;100946.64;1725952;80;21203;-76
2021/10/11 07:14:38;;;;;;;26.57;12.23;;;;;;;9.98;52.01;100936.64;1723829;81;21192;-76
2021/10/11 07:17:45;;;;;;;19.57;11.68;;;;;;;10.04;52.06;100939.25;1728045;82;21326;-76
2021/10/11 07:20:52;;;;;;;28.25;12.15;;;;;;;10.13;52.05;100940.19;1727600;80;21330;-76
2021/10/11 07:23:58;;;;;;;25.15;11.65;;;;;;;10.25;51.82;100929.36;1723181;80;21212;-76
2021/10/11 07:27:04;;;;;;;23.10;10.85;;;;;;;10.39;51.42;100931.52;1725271;80;21640;-76
2021/10/11 07:30:11;;;;;;;25.60;10.72;;;;;;;10.54;51.52;100928.19;1726120;80;21637;-76
2021/10/11 07:33:17;;;;;;;28.35;10.90;;;;;;;10.70;50.20;100933.78;1723195;80;21207;-77
2021/10/11 07:36:22;;;;;;;20.43;10.55;;;;;;;10.77;50.35;100921.16;1714508;81;21259;-76
2021/10/11 07:39:30;;;;;;;20.88;11.20;;;;;;;10.91;50.08;100924.64;1726689;80;21554;-78
2021/10/11 07:42:43;;;;;;;25.00;11.45;;;;;;;11.02;49.66;100924.03;1692795;81;21281;-77
2021/10/11 07:46:08;;;;;;;18.60;9.43;;;;;;;11.10;49.56;100913.09;1693195;82;21181;-75
2021/10/11 07:49:20;;;;;;;23.42;10.43;;;;;;;11.18;49.40;100909.03;1675702;82;21180;-77
2021/10/11 07:52:25;;;;;;;22.37;10.65;;;;;;;11.21;49.02;100909.56;1712112;81;21202;-77
2021/10/11 07:55:35;;;;;;;22.50;10.20;;;;;;;11.28;49.26;100915.22;1687312;83;21208;-76
2021/10/11 07:58:41;;;;;;;21.50;9.80;;;;;;;11.36;49.19;100915.77;1678256;82;22034;-76
2021/10/11 08:01:47;;;;;;;20.05;10.72;;;;;;;11.44;49.23;100919.91;1686192;82;21243;-76
2021/10/11 08:04:53;;;;;;;29.95;10.53;;;;;;;11.54;48.74;100926.61;1694779;83;22953;-76
2021/10/11 08:07:59;;;;;;;19.50;9.23;;;;;;;11.62;48.76;100919.27;1692938;82;21522;-75
2021/10/11 08:11:06;;;;;;;28.57;10.32;;;;;;;11.73;48.36;100915.34;1699198;82;21214;-77
2021/10/11 08:14:14;;;;;;;19.27;9.60;;;;;;;11.82;48.25;100907.50;1691867;82;21210;-75
2021/10/11 08:17:25;;;;;;;20.60;10.25;;;;;;;11.93;48.00;100907.67;1689660;83;21229;-75
2021/10/11 08:20:28;;;;;;;22.35;9.43;;;;;;;12.01;47.77;100904.42;1722190;80;21592;-75
2021/10/11 08:23:36;;;;;;;19.85;11.43;;;;;;;12.09;47.51;100907.69;1716261;81;22035;-75
2021/10/11 08:26:40;;;;;;;21.90;10.63;;;;;;;12.15;47.33;100904.77;1716053;81;21244;-75
2021/10/11 08:29:51;;;;;;;23.18;10.50;;;;;;;12.20;47.32;100898.25;1715565;81;21184;-76
2021/10/11 08:32:57;;;;;;;21.95;9.88;;;;;;;12.26;47.12;100896.18;1718939;81;21317;-77
2021/10/11 08:36:05;;;;;;;23.12;10.82;;;;;;;12.28;47.20;100897.73;1713918;81;21602;-76
2021/10/11 08:39:10;;;;;;;22.73;11.20;;;;;;;12.37;46.89;100905.41;1711910;81;21535;-76
2021/10/11 08:42:19;;;;;;;18.05;9.70;;;;;;;12.39;46.78;100893.77;1698364;82;21241;-76
2021/10/11 08:45:26;;;;;;;19.50;10.43;;;;;;;12.43;46.94;100897.87;1712848;81;21214;-75
2021/10/11 08:48:31;;;;;;;21.65;10.88;;;;;;;12.48;47.00;100891.88;1697676;81;21251;-76
2021/10/11 08:51:37;;;;;;;20.05;10.00;;;;;;;12.54;46.54;100879.66;1694091;83;21286;-76
2021/10/11 08:54:43;;;;;;;22.50;10.03;;;;;;;12.60;46.78;100882.73;1695178;82;21248;-76
2021/10/11 08:57:51;;;;;;;20.65;10.15;;;;;;;12.68;46.62;100867.63;1700356;82;21212;-76
2021/10/11 09:00:57;;;;;;;22.85;10.70;;;;;;;12.75;46.38;100869.50;1696803;81;21251;-75
2021/10/11 09:04:04;;;;;;;25.32;10.30;;;;;;;12.82;46.29;100867.41;1690872;83;21673;-76
2021/10/11 09:07:13;;;;;;;23.10;11.05;;;;;;;12.89;46.21;100862.42;1697236;83;21331;-75
2021/10/11 09:10:19;;;;;;;19.23;9.90;;;;;;;12.96;46.27;100865.30;1695927;82;21201;-75
2021/10/11 09:13:26;;;;;;;22.32;9.95;;;;;;;13.07;46.12;100855.80;1692018;82;21261;-75
2021/10/11 09:16:34;;;;;;;22.70;11.05;;;;;;;13.19;46.00;100848.88;1693505;82;21269;-77
2021/10/11 09:19:56;;;;;;;24.25;10.43;;;;;;;13.33;45.49;100845.39;1695988;82;21200;-78
2021/10/11 09:22:52;;;;;;;18.57;9.83;;;;;;;13.35;45.24;100846.57;1697411;83;21204;-75
2021/10/11 09:25:58;;;;;;;21.48;9.95;;;;;;;13.30;45.34;100829.25;1696770;82;23336;-76
2021/10/11 09:29:05;;;;;;;19.65;10.45;;;;;;;13.30;45.50;100839.72;1694038;82;22597;-77
2021/10/11 09:32:14;;;;;;;24.70;10.43;;;;;;;13.34;45.38;100842.97;1707309;82;21577;-76
2021/10/11 09:35:26;;;;;;;17.57;10.28;;;;;;;13.37;45.23;100834.90;1695201;83;21243;-75
2021/10/11 09:38:36;;;;;;;22.30;9.53;;;;;;;13.43;45.36;100830.03;1691392;82;21627;-76
2021/10/11 09:41:43;;;;;;;32.45;10.23;;;;;;;13.46;45.53;100813.20;1696907;82;21180;-75
2021/10/11 09:45:05;;;;;;;29.65;10.13;;;;;;;13.48;45.42;100810.59;1677834;82;21213;-76
2021/10/11 09:48:15;;;;;;;20.35;9.88;;;;;;;13.52;45.16;100820.17;1664914;83;21324;-76
2021/10/11 09:51:22;;;;;;;30.30;9.70;;;;;;;13.62;45.32;100805.34;1719023;81;21161;-76
2021/10/11 09:54:31;;;;;;;17.23;9.05;;;;;;;13.71;45.65;100804.23;1671842;81;21835;-76
2021/10/11 09:57:46;;;;;;;23.07;9.53;;;;;;;13.70;45.74;100812.15;1725495;80;21191;-76
2021/10/11 10:00:57;;;;;;;16.17;9.18;;;;;;;13.66;45.79;100801.19;1726235;80;21196;-76
2021/10/11 10:04:02;;;;;;;15.53;9.35;;;;;;;13.69;45.99;100799.42;1732930;80;21188;-76
2021/10/11 10:07:07;;;;;;;18.80;8.58;;;;;;;13.76;45.96;100795.76;1725891;80;21145;-76
2021/10/11 10:10:17;;;;;;;21.48;9.83;;;;;;;13.83;45.49;100787.61;1729478;80;21161;-76
2021/10/11 10:13:29;;;;;;;16.32;9.53;;;;;;;13.81;45.79;100774.58;1730728;80;21179;-77
2021/10/11 10:16:37;;;;;;;20.30;9.83;;;;;;;13.83;46.33;100776.61;1728161;80;21641;-77
2021/10/11 10:19:46;;;;;;;22.13;8.93;;;;;;;13.97;45.71;100770.31;1729969;80;21318;-76
2021/10/11 10:22:55;;;;;;;28.15;9.93;;;;;;;14.10;45.66;100764.66;1731620;80;22390;-77
2021/10/11 10:26:12;;;;;;;12.50;8.53;;;;;;;14.06;45.35;100771.05;1728311;80;21925;-77
2021/10/11 10:29:21;;;;;;;19.62;9.65;;;;;;;14.05;45.13;100757.83;1730021;80;21215;-74
2021/10/11 10:32:26;;;;;;;18.27;8.80;;;;;;;14.10;45.66;100760.54;1730985;80;21287;-75
2021/10/11 10:35:36;;;;;;;19.00;9.18;;;;;;;14.22;45.45;100764.02;1728285;80;21878;-77
2021/10/11 10:38:41;;;;;;;16.45;10.13;;;;;;;14.26;45.40;100759.85;1724099;80;21334;-76
2021/10/11 10:41:49;;;;;;;17.70;9.10;;;;;;;14.27;45.85;100755.20;1727996;80;21346;-77
2021/10/11 10:45:01;;;;;;;22.82;8.85;;;;;;;14.28;45.81;100755.52;1708751;79;21208;-78
2021/10/11 10:48:23;;;;;;;21.40;9.75;;;;;;;14.23;45.69;100759.37;1688747;82;21260;-76
2021/10/11 10:51:30;;;;;;;22.13;9.33;;;;;;;14.19;46.06;100748.41;1667287;83;21889;-76
2021/10/11 10:54:49;;;;;;;17.85;9.58;;;;;;;14.23;46.38;100748.36;1691116;82;21194;-76
2021/10/11 10:58:10;;;;;;;21.10;9.30;;;;;;;14.26;46.34;100741.12;1695491;82;21257;-77
2021/10/11 11:01:18;;;;;;;25.02;8.60;;;;;;;14.34;46.93;100742.37;1667035;84;21205;-76
2021/10/11 11:04:27;;;;;;;21.85;8.83;;;;;;;14.42;46.86;100742.28;1693271;82;21367;-75
2021/10/11 11:07:39;;;;;;;18.57;8.58;;;;;;;14.46;46.99;100743.61;1697318;82;22513;-77
2021/10/11 11:10:51;;;;;;;17.35;8.98;;;;;;;14.50;46.86;100736.72;1683413;83;21180;-75
2021/10/11 11:13:57;;;;;;;22.90;9.45;;;;;;;14.53;46.55;100736.84;1694630;82;21345;-75
2021/10/11 11:17:16;;;;;;;16.07;9.33;;;;;;;14.51;46.75;100734.81;1680476;82;21270;-77
2021/10/11 11:20:26;;;;;;;16.93;8.83;;;;;;;14.47;46.85;100723.30;1713696;80;21393;-78
2021/10/11 11:23:36;;;;;;;15.63;8.45;;;;;;;14.42;47.02;100714.76;1721705;80;21411;-76
2021/10/11 11:26:47;;;;;;;21.15;8.73;;;;;;;14.38;47.09;100713.44;1709947;80;22337;-76
2021/10/11 11:30:02;;;;;;;21.45;9.05;;;;;;;14.40;46.98;100716.86;1714763;82;21476;-76
2021/10/11 11:33:18;;;;;;;22.02;8.63;;;;;;;14.42;47.05;100709.78;1690235;81;21940;-76
2021/10/11 11:36:25;;;;;;;23.05;8.90;;;;;;;14.44;47.21;100701.64;1693170;82;21299;-76
2021/10/11 11:39:35;;;;;;;17.95;8.53;;;;;;;14.41;47.24;100691.05;1695793;83;21591;-76
2021/10/11 11:43:04;;;;;;;21.57;9.03;;;;;;;14.40;47.60;100698.98;1693368;82;21400;-75
2021/10/11 11:46:16;;;;;;;14.90;7.83;;;;;;;14.50;46.77;100694.58;1680493;82;21866;-77
2021/10/11 11:49:34;;;;;;;22.87;8.68;;;;;;;14.48;46.80;100684.27;1692916;84;21414;-76
2021/10/11 11:52:40;;;;;;;15.32;7.53;;;;;;;14.46;46.96;100692.70;1686512;82;21276;-75
2021/10/11 11:55:52;;;;;;;15.75;8.53;;;;;;;14.48;47.34;100692.52;1692800;82;21341;-75
2021/10/11 11:58:58;;;;;;;21.42;8.55;;;;;;;14.49;47.31;100678.59;1694614;82;21327;-75
2021/10/11 12:02:07;;;;;;;17.42;7.72;;;;;;;14.53;47.40;100685.39;1692995;82;21339;-75
2021/10/11 12:05:13;;;;;;;14.73;8.05;;;;;;;14.57;47.27;100672.09;1697385;82;21227;-75
2021/10/11 12:08:19;;;;;;;14.63;8.03;;;;;;;14.62;47.35;100668.77;1695532;82;21702;-75
2021/10/11 12:11:35;;;;;;;20.75;8.03;;;;;;;14.64;47.59;100665.31;1692867;82;21362;-75
2021/10/11 12:14:41;;;;;;;19.15;7.92;;;;;;;14.66;47.70;100658.55;1687725;83;21244;-77
2021/10/11 12:18:10;;;;;;;23.27;9.25;;;;;;;14.67;47.85;100651.98;1698416;82;21362;-75
2021/10/11 12:21:37;;;;;;;15.63;7.45;;;;;;;14.71;47.57;100650.55;1692831;82;21338;-74
2021/10/11 12:24:44;;;;;;;18.10;7.87;;;;;;;14.74;47.46;100649.33;1700994;82;21220;-75
2021/10/11 12:27:51;;;;;;;16.55;7.58;;;;;;;14.75;46.88;100648.27;1696986;82;21331;-76
2021/10/11 12:30:57;;;;;;;17.80;7.42;;;;;;;14.73;47.00;100651.23;1699133;83;21839;-75
2021/10/11 12:34:13;;;;;;;13.03;6.95;;;;;;;14.69;47.10;100628.41;1686095;84;21282;-77
2021/10/11 12:37:21;;;;;;;15.75;6.67;;;;;;;14.65;47.14;100630.70;1700726;84;21362;-75
2021/10/11 12:40:34;;;;;;;15.70;6.85;;;;;;;14.65;47.13;100620.21;1696518;83;22521;-75
2021/10/11 12:43:41;;;;;;;24.20;6.92;;;;;;;14.66;46.99;100624.66;1676159;83;21673;-76
2021/10/11 12:47:03;;;;;;;24.25;7.05;;;;;;;14.65;47.03;100622.44;1685311;82;21349;-81
2021/10/11 12:50:13;;;;;;;18.32;7.55;;;;;;;14.63;47.19;100625.05;1711058;83;21470;-76
2021/10/11 12:53:20;;;;;;;12.73;6.53;;;;;;;14.64;47.21;100626.77;1712876;83;21330;-77
2021/10/11 12:56:25;;;;;;;18.48;7.22;;;;;;;14.64;47.20;100619.89;1706073;82;21398;-76
2021/10/11 12:59:31;;;;;;;16.07;8.75;;;;;;;14.63;47.15;100619.53;1701755;83;21260;-76
2021/10/11 13:02:35;;;;;;;21.25;7.30;;;;;;;14.62;47.19;100617.31;1704838;83;21334;-76
2021/10/11 13:05:52;;;;;;;20.50;7.97;;;;;;;14.61;47.53;100618.36;1709104;82;21299;-77
2021/10/11 13:09:00;;;;;;;17.27;7.53;;;;;;;14.62;47.43;100609.58;1684663;82;21666;-76
2021/10/11 13:12:05;;;;;;;26.82;8.88;;;;;;;14.59;47.73;100614.13;1706164;82;21337;-76
2021/10/11 13:15:12;;;;;;;15.00;7.65;;;;;;;14.56;47.73;100603.81;1718761;82;21236;-76
2021/10/11 13:18:16;;;;;;;25.12;9.35;;;;;;;14.57;47.92;100599.16;1717245;82;21748;-76
2021/10/11 13:21:23;;;;;;;19.65;9.60;;;;;;;14.54;47.98;100592.16;1715242;82;21350;-75
2021/10/11 13:24:29;;;;;;;23.27;9.50;;;;;;;14.53;48.43;100588.20;1723137;82;21314;-76
2021/10/11 13:27:35;;;;;;;44.93;9.83;;;;;;;14.50;49.07;100584.48;1719451;82;22629;-75
2021/10/11 14:26:17;;;;;;;94.30;11.15;;;;;;;14.19;52.08;100609.48;1700897;83;21316;-76
2021/10/11 14:28:15;;;;;;;19.30;8.10;;;;;;;13.32;52.88;100590.93;1711584;84;21317;-75
2021/10/11 14:31:27;;;;;;;21.52;7.33;;;;;;;13.22;53.10;100581.59;1712738;84;21747;-76
2021/10/11 16:02:35;;;;;;;70.15;21.30;;;;;;;10.46;62.90;100597.58;1717124;83;21319;-76
2021/10/11 16:05:37;;;;;;;56.83;21.50;;;;;;;10.37;63.29;100592.27;1717623;83;21795;-75
2021/10/11 16:08:44;;;;;;;50.38;24.57;;;;;;;10.28;63.54;100588.66;1716874;83;21320;-75
2021/10/11 16:11:51;;;;;;;50.38;20.25;;;;;;;10.22;63.74;100590.67;1717118;83;21205;-75
2021/10/11 16:14:59;;;;;;;43.33;19.42;;;;;;;10.16;63.90;100588.59;1715305;83;21204;-75
2021/10/11 16:18:06;;;;;;;46.88;15.48;;;;;;;10.12;63.87;100587.23;1716639;83;21730;-75
2021/10/11 16:21:14;;;;;;;33.75;14.28;;;;;;;10.06;63.95;100587.88;1699851;83;21307;-75
2021/10/11 16:24:19;;;;;;;28.77;11.45;;;;;;;9.98;64.09;100580.02;1717115;83;21768;-75
2021/10/11 16:27:24;;;;;;;26.90;12.75;;;;;;;9.91;64.41;100576.73;1717039;83;21189;-75
2021/10/11 16:30:30;;;;;;;36.20;12.30;;;;;;;9.85;64.55;100578.25;1715765;83;21799;-75
2021/10/11 16:33:36;;;;;;;32.58;11.35;;;;;;;9.79;64.58;100578.92;1717065;83;21266;-75
2021/10/11 16:36:41;;;;;;;32.78;11.53;;;;;;;9.75;64.68;100579.42;1717186;83;21168;-75
2021/10/11 16:39:47;;;;;;;36.15;11.22;;;;;;;9.69;64.68;100572.70;1716436;83;21355;-75
2021/10/11 16:42:54;;;;;;;28.80;12.37;;;;;;;9.67;64.53;100572.03;1717297;83;22487;-75